Time;durP1;ratioP1;P1;durP2;ratioP2;P2;SDS_P1;SDS_P2;PMS_P1;PMS_P2;Temp;Humidity;BMP_temperature;BMP_pressure;BME280_temperature;BME280_humidity;BME280_pressure;Samples;Min_cycle;Max_cycle;Signal;HPM_P1;HPM_P2
2022/07/18 17:17:04;;;;;;;1.60;0.80;;;35.00;53.60;;;;;;5025058;22;1376314;-90
2022/07/18 17:19:30;;;;;;;0.80;0.60;;;35.00;53.90;;;;;;5013750;28;20069;-91
2022/07/18 17:21:57;;;;;;;1.23;0.80;;;34.90;54.00;;;;;;5017715;28;20069;-91
2022/07/18 17:24:23;;;;;;;1.45;0.80;;;35.00;55.20;;;;;;5024870;28;20478;-91
2022/07/18 17:26:49;;;;;;;1.77;0.70;;;34.90;54.40;;;;;;5032809;28;20476;-91
2022/07/18 17:29:18;;;;;;;2.10;1.00;;;34.80;54.40;;;;;;5034760;28;20116;-93
2022/07/18 17:31:43;;;;;;;1.05;0.73;;;34.80;54.90;;;;;;5034641;28;20091;-91
2022/07/18 17:34:09;;;;;;;1.48;0.95;;;34.70;55.00;;;;;;5029840;28;20593;-91
2022/07/18 17:36:36;;;;;;;1.90;0.90;;;34.70;55.40;;;;;;5030026;28;20058;-90
2022/07/18 17:39:03;;;;;;;0.90;0.80;;;34.60;55.80;;;;;;5031261;28;20053;-93
2022/07/18 17:41:29;;;;;;;1.92;1.00;;;34.50;56.00;;;;;;5031902;28;20041;-92
2022/07/18 17:43:55;;;;;;;3.10;0.85;;;34.50;56.30;;;;;;5001145;28;20081;-92
2022/07/18 17:46:27;;;;;;;1.23;0.90;;;34.40;56.40;;;;;;5019160;28;20034;-94
2022/07/18 17:48:53;;;;;;;1.30;0.80;;;34.30;56.40;;;;;;5021172;28;20052;-92
2022/07/18 17:51:24;;;;;;;1.15;0.77;;;34.20;56.70;;;;;;5022504;28;20480;-93
2022/07/18 17:53:50;;;;;;;3.83;1.23;;;34.10;56.90;;;;;;4988114;28;20041;-91
2022/07/18 17:56:16;;;;;;;0.98;0.70;;;34.00;57.00;;;;;;5000946;28;20092;-92
2022/07/18 17:58:48;;;;;;;1.20;0.73;;;34.00;57.20;;;;;;5019409;28;20113;-94
2022/07/18 18:01:14;;;;;;;1.35;0.88;;;33.90;57.40;;;;;;5020570;28;20594;-94
2022/07/18 18:03:45;;;;;;;1.55;1.10;;;33.80;57.50;;;;;;5017675;28;20030;-92
2022/07/18 18:06:11;;;;;;;1.70;0.90;;;33.70;57.90;;;;;;4986162;28;20081;-90
2022/07/18 18:08:38;;;;;;;1.15;0.80;;;33.50;57.90;;;;;;5005814;28;20049;-90
2022/07/18 18:11:06;;;;;;;2.30;1.00;;;33.50;58.30;;;;;;5020173;28;20117;-91
2022/07/18 18:13:32;;;;;;;1.95;1.00;;;33.40;58.30;;;;;;5015572;28;20057;-91
2022/07/18 18:15:57;;;;;;;2.70;1.10;;;33.30;58.40;;;;;;5013675;28;20553;-93
2022/07/18 18:18:23;;;;;;;1.77;1.08;;;33.30;58.70;;;;;;5012427;28;20459;-92
2022/07/18 18:20:49;;;;;;;1.63;1.00;;;33.20;59.10;;;;;;5012618;28;20030;-93
2022/07/18 18:23:14;;;;;;;2.42;1.10;;;33.20;59.40;;;;;;4995777;28;20120;-93
2022/07/18 18:25:40;;;;;;;1.98;1.02;;;33.10;59.50;;;;;;5011218;28;20046;-91
2022/07/18 18:28:06;;;;;;;3.92;1.20;;;33.10;59.80;;;;;;4994541;28;20053;-93
2022/07/18 18:30:32;;;;;;;2.25;0.98;;;33.00;60.10;;;;;;5013338;28;20049;-91
2022/07/18 18:32:59;;;;;;;1.88;1.17;;;32.90;60.50;;;;;;5013078;28;20433;-92
2022/07/18 18:35:26;;;;;;;1.77;1.08;;;32.80;61.40;;;;;;5012365;28;20054;-95
2022/07/18 18:37:55;;;;;;;3.75;1.20;;;32.70;61.10;;;;;;4987796;28;20102;-94
2022/07/18 18:40:21;;;;;;;4.45;1.40;;;32.70;61.30;;;;;;5014830;28;20376;-92
2022/07/18 18:42:47;;;;;;;5.55;1.63;;;32.60;61.60;;;;;;4996940;28;20057;-92
2022/07/18 18:45:13;;;;;;;12.40;2.67;;;32.50;61.90;;;;;;5011407;28;20030;-91
2022/07/18 18:47:39;;;;;;;7.75;2.20;;;32.40;62.20;;;;;;5000988;28;20042;-92
2022/07/18 18:50:07;;;;;;;5.45;1.98;;;32.40;62.50;;;;;;5000654;28;20034;-91
2022/07/18 18:52:34;;;;;;;6.93;2.42;;;32.30;62.80;;;;;;5003159;28;20030;-93
2022/07/18 18:55:00;;;;;;;5.25;1.88;;;32.20;63.10;;;;;;4994348;28;20046;-92
2022/07/18 18:57:26;;;;;;;4.18;2.08;;;32.10;63.30;;;;;;4997906;28;20153;-91
2022/07/18 18:59:52;;;;;;;7.13;2.17;;;32.10;63.60;;;;;;5017474;28;20070;-93
2022/07/18 19:02:17;;;;;;;4.72;1.70;;;32.00;63.80;;;;;;4999287;28;20607;-92
2022/07/18 19:04:43;;;;;;;4.65;1.60;;;31.90;64.00;;;;;;5011060;28;20029;-91
2022/07/18 19:07:10;;;;;;;4.30;2.10;;;31.80;64.20;;;;;;4977715;28;20400;-90
2022/07/18 19:09:40;;;;;;;5.90;1.80;;;31.80;64.50;;;;;;5020247;28;20034;-91
2022/07/18 19:12:06;;;;;;;10.00;2.20;;;31.80;64.80;;;;;;4999238;28;20022;-93
2022/07/18 19:14:32;;;;;;;12.70;2.83;;;31.70;64.90;;;;;;5000224;28;20096;-93
2022/07/18 19:16:57;;;;;;;16.73;3.80;;;31.60;65.10;;;;;;5018524;28;20042;-90
2022/07/18 19:19:23;;;;;;;18.02;4.07;;;31.50;65.20;;;;;;5018432;28;20038;-91
2022/07/18 19:21:49;;;;;;;17.48;4.57;;;31.50;65.40;;;;;;5022057;28;20017;-93
2022/07/18 19:24:14;;;;;;;20.75;4.78;;;31.40;65.50;;;;;;5007976;28;20030;-88
2022/07/18 19:26:40;;;;;;;17.80;4.82;;;31.30;65.70;;;;;;5013559;28;20040;-90
2022/07/18 19:29:07;;;;;;;14.13;4.25;;;31.30;65.80;;;;;;4989282;28;20093;-94
2022/07/18 19:31:33;;;;;;;13.52;3.85;;;31.20;65.90;;;;;;4987139;28;20062;-92
2022/07/18 19:34:01;;;;;;;10.77;3.80;;;31.10;66.00;;;;;;4986461;28;20372;-93
2022/07/18 19:36:28;;;;;;;11.35;3.30;;;31.00;66.30;;;;;;4986875;28;20026;-91
2022/07/18 19:39:01;;;;;;;13.63;3.20;;;30.90;66.50;;;;;;4990757;28;20061;-94
2022/07/18 19:41:27;;;;;;;12.48;3.53;;;30.90;66.80;;;;;;4993069;28;20045;-94
2022/07/18 19:43:52;;;;;;;15.50;3.78;;;30.70;66.80;;;;;;4986610;28;20129;-91
2022/07/18 19:46:18;;;;;;;13.10;3.53;;;30.70;67.00;;;;;;4985824;28;20042;-92
2022/07/18 19:48:45;;;;;;;12.25;4.10;;;30.60;67.10;;;;;;4988923;28;20038;-91
2022/07/18 19:51:11;;;;;;;16.08;3.70;;;30.50;67.30;;;;;;5039625;23;20068;-90
2022/07/18 19:53:38;;;;;;;14.75;4.22;;;30.50;67.40;;;;;;5066761;28;20542;-91
2022/07/18 19:56:09;;;;;;;15.73;4.05;;;30.40;67.60;;;;;;5064151;28;20402;-91
2022/07/18 19:58:34;;;;;;;14.63;4.40;;;30.30;67.70;;;;;;5061457;28;20037;-90
2022/07/18 20:01:00;;;;;;;14.43;4.28;;;30.20;67.80;;;;;;5040302;28;20134;-90
2022/07/18 20:03:28;;;;;;;14.60;4.32;;;30.10;67.90;;;;;;5038979;28;20044;-92
2022/07/18 20:05:54;;;;;;;11.77;4.20;;;30.10;68.00;;;;;;5049663;28;20485;-93
2022/07/18 20:08:19;;;;;;;12.23;4.50;;;30.00;68.20;;;;;;5049920;28;20049;-92
2022/07/18 20:10:45;;;;;;;11.15;3.70;;;30.00;68.30;;;;;;5047287;28;20029;-92
2022/07/18 20:13:11;;;;;;;12.05;4.10;;;29.90;68.40;;;;;;5049643;28;20033;-89
2022/07/18 20:15:37;;;;;;;9.98;3.15;;;29.80;68.60;;;;;;5047263;28;20033;-90
2022/07/18 20:18:05;;;;;;;8.50;3.13;;;29.80;68.80;;;;;;5061375;28;20036;-91
2022/07/18 20:20:32;;;;;;;9.75;3.00;;;29.70;68.90;;;;;;5059165;28;20037;-91
2022/07/18 20:23:21;;;;;;;7.40;2.70;;;29.70;69.10;;;;;;5058452;28;20071;-93
2022/07/18 20:26:19;;;;;;;6.53;2.40;;;29.60;69.20;;;;;;5044360;22;20501;-93
2022/07/18 20:29:25;;;;;;;4.47;2.20;;;29.50;69.30;;;;;;5064026;28;20048;-91
